x

9415115 - Pittsburg (suisun Bay), Ca (psbc1) Weather Station

5:00am - Sat 30th Jul 2016 All times are PDT. -7 hours from GMT.

  • Wind
    23mph, 30mph gusts
  • Air Temp 61°f
  • Sea Pressure 1005.8mb
  • 9415115 - Pittsburg (suisun Bay), Ca
  • 9415115 - Pittsburg (suisun Bay), Ca

More Historic Weather Station data

Upgrade to MSW Pro to gain access to the past 30 days of data for over 8000 Wavebouys and Weather Stations around the globe.

Join Pro

Comparision Forecast

View Surf forecast
   
Sat 07/30 5:00am 23 30 mph 1005.8mb 61f
4:54am 22 29 mph 1005.8mb 62f
4:48am 22 26 mph 1005.9mb 62f
3:42am 24 29 mph 1005.8mb 62f
3:36am 22 28 mph 1005.8mb 62f
3:30am 22 28 mph 1005.8mb 63f
3:12am 22 28 mph 1006mb 63f
1:30am 22 26 mph 1006.6mb 65f
12:54am 20 23 mph 1006.5mb 67f
12:48am 20 24 mph 1006.6mb 67f
Fri 07/29 11:36pm 16 22 mph 1006.9mb 70f
10:00pm 14 17 mph 1007.4mb 72f
8:24pm  -  mph 1006.5mb -
3:18pm  -  mph 1007.3mb -
2:54pm  -  mph 1007.6mb 82f
2:06pm 16 20 mph 1008.2mb 82f
1:30pm 16 21 mph 1008.6mb 78f
7:54am 20 23 mph 1009.2mb 63f
7:48am 21 24 mph 1009.1mb 63f
7:42am 21 25 mph 1009.1mb 63f
7:36am 20 24 mph 1009.1mb 62f
7:24am 18 24 mph 1009.1mb 62f
7:12am 18 24 mph 1009.1mb 62f
7:06am 20 26 mph 1009mb 62f
7:00am 21 24 mph 1009mb 62f
6:54am 20 24 mph 1008.9mb 62f
6:48am 20 25 mph 1008.8mb 62f
6:42am 18 24 mph 1008.8mb 62f
6:36am 20 24 mph 1008.6mb 62f
6:30am 20 25 mph 1008.6mb 62f
6:18am 17 21 mph 1008.6mb 62f
6:12am 17 22 mph 1008.6mb 63f
6:06am 17 22 mph 1008.5mb 63f
5:54am 18 22 mph 1008.4mb 63f
5:48am 17 21 mph 1008.3mb 63f
5:42am 16 22 mph 1008.2mb 63f
5:36am 17 22 mph 1008.1mb 63f
5:30am 17 22 mph 1008.2mb 63f
5:24am 17 22 mph 1008.1mb 63f
5:18am 17 22 mph 1008.1mb 63f
5:12am 20 25 mph 1008mb 62f
5:06am 20 25 mph 1008mb 62f
4:54am 22 26 mph 1008mb 63f
4:48am 21 26 mph 1008.1mb 63f
4:42am 21 25 mph 1008.1mb 63f
4:24am 20 25 mph 1008.1mb 63f
4:06am 18 23 mph 1008.1mb 63f
1:36am 22 26 mph 1008.1mb 65f
1:24am 23 28 mph 1008mb 66f
1:12am 23 29 mph 1007.8mb 67f
1:06am 21 26 mph 1008mb 67f
12:36am 18 23 mph 1008.4mb 69f
Thu 07/28 11:36pm 20 24 mph 1008.6mb -
11:00pm 18 23 mph 1008.9mb 72f
9:24pm 14 20 mph 1008.9mb 74f
8:54pm 15 18 mph 1008.7mb 76f
7:12pm  -  mph - 81f
7:06pm  -  mph - 81f
2:36pm 16 21 mph - 81f
12:42pm 15 21 mph 1010.7mb 76f
11:00am 18 23 mph 1011.2mb 71f
10:06am 17 22 mph 1011.3mb 69f
9:12am 18 25 mph 1011.2mb 65f
8:18am 18 23 mph 1011mb 63f
8:12am 17 22 mph 1011mb 63f
8:06am 18 23 mph 1011mb 62f
7:54am 20 25 mph 1010.8mb 62f
7:48am 20 25 mph 1010.7mb 62f
7:36am 20 26 mph 1010.8mb 62f
7:30am 21 26 mph 1010.7mb 62f
7:24am 20 26 mph 1010.7mb 62f
7:12am 21 25 mph 1010.5mb 62f
7:06am 22 26 mph 1010.5mb 62f
7:00am 21 26 mph 1010.5mb 62f
6:54am 22 26 mph 1010.3mb 62f
6:42am 20 26 mph 1010.2mb 62f
6:30am 22 26 mph 1010mb 62f
6:18am 22 28 mph 1010mb 62f
6:12am 22 26 mph 1010mb 62f
6:06am 18 24 mph 1010mb 63f
5:54am 21 28 mph 1009.8mb 62f
5:48am 20 25 mph 1009.7mb 62f
5:36am 21 26 mph 1009.8mb 62f
5:30am 22 28 mph 1009.8mb 62f
5:24am 21 26 mph 1009.7mb 62f
5:18am 21 29 mph 1009.6mb 62f
5:12am 22 28 mph 1009.6mb 62f
5:06am 22 28 mph 1009.6mb 62f
5:00am 23 29 mph 1009.6mb 62f
4:54am 22 29 mph 1009.6mb 62f
4:30am 21 25 mph 1009.7mb 63f
4:12am 20 25 mph 1009.5mb 63f
3:24am 21 26 mph 1009.7mb 64f
12:42am 18 23 mph 1010.3mb 67f
Wed 07/27 7:48pm 16 21 mph - -
7:24pm 17 23 mph - -
5:30pm  -  mph 1008.9mb -
4:42pm  -  mph 1009.1mb -
3:12pm 16 18 mph 1009.8mb 86f
2:48pm 13 16 mph - 84f
12:24pm 13 15 mph 1011mb 80f
11:30am 13 15 mph 1011.3mb 78f
11:12am 11 16 mph 1011.2mb 77f
11:06am 11 14 mph 1011.2mb 77f
9:12am 15 20 mph 1011mb 71f
6:54am 11 15 mph 1010.3mb 69f
5:24am 16 22 mph 1009.4mb 68f
3:30am 16 20 mph 1009mb 71f
3:18am 15 18 mph 1009mb 73f
1:42am 10 13 mph 1009.1mb 77f
12:48am 8 11 mph 1009.2mb 76f
12:18am 10 13 mph 1009.2mb 81f
12:06am 8 11 mph 1009.2mb 78f
12:00am 7 10 mph 1009.3mb 79f
Tue 07/26 11:54pm 8 10 mph 1009.3mb 79f
11:00pm 14 15 mph 1009.2mb 79f
10:42pm 13 15 mph 1009.4mb 79f
10:30pm 11 14 mph 1009.5mb 78f
9:00pm 11 16 mph 1008.8mb 81f
8:36pm 13 15 mph 1008.6mb 84f
8:06pm 11 14 mph 1008.6mb -
6:12pm 13 15 mph - 90f
6:06pm 13 15 mph - 90f
6:00pm  -  mph - 90f
5:54pm  -  mph - 92f
5:42pm 11 14 mph 1008.3mb -
5:24pm 13 14 mph - 91f
5:00pm  -  mph - 90f
3:48pm  -  mph 1009.4mb -
3:36pm  -  mph 1009.6mb -
3:30pm 7 9 mph 1009.6mb 87f
3:00pm  -  mph - 88f
2:24pm 6 8 mph 1010.3mb 86f
1:42pm 8 9 mph 1010.7mb 84f